Alliance, Ohio
Current Conditions -  °F | °C
As of 12:51 PM on Thursday 23 Oct 2014 (Local Time) from KCAK Reporting Station
Broken Clouds Broken Clouds  
Wind Chill: 13°   Ceiling: 2400
Heat Index: 13°   Visibility: 10mi
Dew Point:   Wind: 9mph
Humidity: 62%   Direction: 350°N
Pressure: 30.16"   Gusts: NA
Location:  40.92°N, 81.1°W
Report Text: KCAK 231651Z 35008KT 10SM BKN024 13/06 A3016 RMK AO2 SLP217 T01330061
Loading
Personal Weather Stations






























Interactive Weather Map
Tropical Storm Tracking
New forecast layout! Learn more

10-Day Weather Forecast

Advertisements
Track Severe Weather on mobile